sensor_id;sensor_type;location;lat;lon;timestamp;temperature;humidity
10864;DHT22;5485;37.558;126.950;2023-09-19T00:00:44;26.30;60.30
10864;DHT22;5485;37.558;126.950;2023-09-19T00:03:13;26.50;23.30
10864;DHT22;5485;37.558;126.950;2023-09-19T00:05:40;26.60;7.50
10864;DHT22;5485;37.558;126.950;2023-09-19T00:08:10;26.50;1.00
10864;DHT22;5485;37.558;126.950;2023-09-19T00:10:39;26.50;1.00
10864;DHT22;5485;37.558;126.950;2023-09-19T00:13:08;26.30;1.90
10864;DHT22;5485;37.558;126.950;2023-09-19T00:15:41;26.30;1.00
10864;DHT22;5485;37.558;126.950;2023-09-19T00:18:18;26.20;1.00
10864;DHT22;5485;37.558;126.950;2023-09-19T00:20:47;26.20;3.70
10864;DHT22;5485;37.558;126.950;2023-09-19T00:23:15;26.20;9.20
10864;DHT22;5485;37.558;126.950;2023-09-19T00:25:42;26.20;14.50
10864;DHT22;5485;37.558;126.950;2023-09-19T00:28:09;26.30;12.40
10864;DHT22;5485;37.558;126.950;2023-09-19T00:30:36;26.30;6.00
10864;DHT22;5485;37.558;126.950;2023-09-19T00:33:04;26.30;8.50
10864;DHT22;5485;37.558;126.950;2023-09-19T00:35:34;26.20;9.60
10864;DHT22;5485;37.558;126.950;2023-09-19T00:38:00;26.20;1.50
10864;DHT22;5485;37.558;126.950;2023-09-19T00:40:28;26.30;1.00
10864;DHT22;5485;37.558;126.950;2023-09-19T00:42:58;26.50;1.00
10864;DHT22;5485;37.558;126.950;2023-09-19T00:45:27;26.60;1.00
10864;DHT22;5485;37.558;126.950;2023-09-19T00:47:57;26.70;1.00
10864;DHT22;5485;37.558;126.950;2023-09-19T00:50:33;27.10;1.00
10864;DHT22;5485;37.558;126.950;2023-09-19T00:53:00;27.20;1.00
10864;DHT22;5485;37.558;126.950;2023-09-19T00:55:29;27.60;1.00
10864;DHT22;5485;37.558;126.950;2023-09-19T00:57:59;27.70;1.00
10864;DHT22;5485;37.558;126.950;2023-09-19T01:00:26;27.60;1.00
10864;DHT22;5485;37.558;126.950;2023-09-19T01:02:53;27.60;1.00
10864;DHT22;5485;37.558;126.950;2023-09-19T01:05:20;28.00;1.00
10864;DHT22;5485;37.558;126.950;2023-09-19T01:07:47;28.30;1.00
10864;DHT22;5485;37.558;126.950;2023-09-19T01:10:24;28.30;1.00
10864;DHT22;5485;37.558;126.950;2023-09-19T01:16:07;29.20;1.00
10864;DHT22;5485;37.558;126.950;2023-09-19T01:19:01;29.20;1.00
10864;DHT22;5485;37.558;126.950;2023-09-19T01:21:44;29.10;1.00
10864;DHT22;5485;37.558;126.950;2023-09-19T01:30:02;29.40;1.00
10864;DHT22;5485;37.558;126.950;2023-09-19T01:32:32;30.00;1.00
10864;DHT22;5485;37.558;126.950;2023-09-19T01:34:59;30.70;1.00
10864;DHT22;5485;37.558;126.950;2023-09-19T01:37:30;31.20;1.00
10864;DHT22;5485;37.558;126.950;2023-09-19T01:40:02;31.40;1.00
10864;DHT22;5485;37.558;126.950;2023-09-19T01:43:02;31.20;1.00
10864;DHT22;5485;37.558;126.950;2023-09-19T01:56:25;30.50;1.00
10864;DHT22;5485;37.558;126.950;2023-09-19T01:59:01;30.10;1.00
10864;DHT22;5485;37.558;126.950;2023-09-19T02:01:31;30.30;1.00
10864;DHT22;5485;37.558;126.950;2023-09-19T02:03:59;30.60;1.00
10864;DHT22;5485;37.558;126.950;2023-09-19T02:06:26;30.80;1.00
10864;DHT22;5485;37.558;126.950;2023-09-19T02:08:55;31.20;1.00
10864;DHT22;5485;37.558;126.950;2023-09-19T02:11:22;31.00;1.00
10864;DHT22;5485;37.558;126.950;2023-09-19T02:13:50;31.00;1.00
10864;DHT22;5485;37.558;126.950;2023-09-19T02:16:20;30.70;1.00
10864;DHT22;5485;37.558;126.950;2023-09-19T02:18:51;30.60;1.00
10864;DHT22;5485;37.558;126.950;2023-09-19T02:21:18;30.70;1.00
10864;DHT22;5485;37.558;126.950;2023-09-19T02:23:48;31.10;1.00
10864;DHT22;5485;37.558;126.950;2023-09-19T02:26:15;31.20;1.00
10864;DHT22;5485;37.558;126.950;2023-09-19T02:28:42;31.30;1.00
10864;DHT22;5485;37.558;126.950;2023-09-19T02:31:09;31.10;1.00
10864;DHT22;5485;37.558;126.950;2023-09-19T02:33:37;31.00;1.00
10864;DHT22;5485;37.558;126.950;2023-09-19T02:36:04;31.30;1.00
10864;DHT22;5485;37.558;126.950;2023-09-19T02:38:32;31.40;1.00
10864;DHT22;5485;37.558;126.950;2023-09-19T02:40:59;31.20;1.00
10864;DHT22;5485;37.558;126.950;2023-09-19T02:43:26;31.00;1.00
10864;DHT22;5485;37.558;126.950;2023-09-19T02:45:53;30.60;1.00
10864;DHT22;5485;37.558;126.950;2023-09-19T02:48:29;30.60;1.00
10864;DHT22;5485;37.558;126.950;2023-09-19T02:50:58;30.50;1.00
10864;DHT22;5485;37.558;126.950;2023-09-19T02:53:25;30.30;1.00
10864;DHT22;5485;37.558;126.950;2023-09-19T02:55:52;30.10;1.00
10864;DHT22;5485;37.558;126.950;2023-09-19T02:58:19;29.80;1.00
10864;DHT22;5485;37.558;126.950;2023-09-19T03:00:46;29.70;1.00
10864;DHT22;5485;37.558;126.950;2023-09-19T03:03:13;29.60;1.00
10864;DHT22;5485;37.558;126.950;2023-09-19T03:05:42;29.30;1.00
10864;DHT22;5485;37.558;126.950;2023-09-19T03:08:14;29.20;1.00
10864;DHT22;5485;37.558;126.950;2023-09-19T03:10:46;29.20;1.00
10864;DHT22;5485;37.558;126.950;2023-09-19T03:13:16;29.10;1.00
10864;DHT22;5485;37.558;126.950;2023-09-19T03:15:45;29.00;1.00
10864;DHT22;5485;37.558;126.950;2023-09-19T03:18:13;29.10;1.00
10864;DHT22;5485;37.558;126.950;2023-09-19T03:20:40;29.10;1.00
10864;DHT22;5485;37.558;126.950;2023-09-19T03:23:07;29.20;1.00
10864;DHT22;5485;37.558;126.950;2023-09-19T03:25:35;29.10;1.00
10864;DHT22;5485;37.558;126.950;2023-09-19T03:28:05;29.20;1.00
10864;DHT22;5485;37.558;126.950;2023-09-19T03:30:32;29.30;1.00
10864;DHT22;5485;37.558;126.950;2023-09-19T03:33:00;29.30;1.00
10864;DHT22;5485;37.558;126.950;2023-09-19T03:35:27;29.50;1.00
10864;DHT22;5485;37.558;126.950;2023-09-19T03:37:53;29.60;1.00
10864;DHT22;5485;37.558;126.950;2023-09-19T03:40:21;29.60;1.00
10864;DHT22;5485;37.558;126.950;2023-09-19T03:42:49;29.60;1.00
10864;DHT22;5485;37.558;126.950;2023-09-19T03:45:16;29.70;1.00
10864;DHT22;5485;37.558;126.950;2023-09-19T03:47:44;29.60;1.00
10864;DHT22;5485;37.558;126.950;2023-09-19T03:50:14;29.60;1.00
10864;DHT22;5485;37.558;126.950;2023-09-19T03:52:46;29.20;1.00
10864;DHT22;5485;37.558;126.950;2023-09-19T03:55:13;29.10;1.00
10864;DHT22;5485;37.558;126.950;2023-09-19T03:57:47;29.30;1.00
10864;DHT22;5485;37.558;126.950;2023-09-19T04:00:14;29.30;1.00
10864;DHT22;5485;37.558;126.950;2023-09-19T04:02:44;29.40;1.00
10864;DHT22;5485;37.558;126.950;2023-09-19T04:05:12;29.60;1.00
10864;DHT22;5485;37.558;126.950;2023-09-19T04:07:39;29.80;1.00
10864;DHT22;5485;37.558;126.950;2023-09-19T04:10:09;29.70;1.00
10864;DHT22;5485;37.558;126.950;2023-09-19T04:12:37;29.70;1.00
10864;DHT22;5485;37.558;126.950;2023-09-19T04:15:08;29.10;1.00
10864;DHT22;5485;37.558;126.950;2023-09-19T04:17:40;29.00;1.00
10864;DHT22;5485;37.558;126.950;2023-09-19T04:20:10;28.90;1.00
10864;DHT22;5485;37.558;126.950;2023-09-19T04:22:38;28.90;1.00
10864;DHT22;5485;37.558;126.950;2023-09-19T04:25:06;29.20;1.00
10864;DHT22;5485;37.558;126.950;2023-09-19T04:27:39;29.10;1.00
10864;DHT22;5485;37.558;126.950;2023-09-19T04:30:07;29.30;1.00
10864;DHT22;5485;37.558;126.950;2023-09-19T04:32:39;29.30;1.00
10864;DHT22;5485;37.558;126.950;2023-09-19T04:35:10;29.30;1.00
10864;DHT22;5485;37.558;126.950;2023-09-19T04:37:38;29.10;1.00
10864;DHT22;5485;37.558;126.950;2023-09-19T04:40:09;29.00;1.00
10864;DHT22;5485;37.558;126.950;2023-09-19T04:42:44;29.00;1.00
10864;DHT22;5485;37.558;126.950;2023-09-19T04:45:11;28.60;1.00
10864;DHT22;5485;37.558;126.950;2023-09-19T04:47:41;28.60;1.00
10864;DHT22;5485;37.558;126.950;2023-09-19T04:50:10;28.50;1.00
10864;DHT22;5485;37.558;126.950;2023-09-19T04:52:40;28.60;1.00
10864;DHT22;5485;37.558;126.950;2023-09-19T04:55:14;28.60;1.00
10864;DHT22;5485;37.558;126.950;2023-09-19T04:57:48;28.70;1.00
10864;DHT22;5485;37.558;126.950;2023-09-19T05:00:16;28.70;1.00
10864;DHT22;5485;37.558;126.950;2023-09-19T05:02:48;28.60;1.00
10864;DHT22;5485;37.558;126.950;2023-09-19T05:05:15;28.30;1.00
10864;DHT22;5485;37.558;126.950;2023-09-19T05:07:44;28.40;1.00
10864;DHT22;5485;37.558;126.950;2023-09-19T05:10:11;28.30;1.00
10864;DHT22;5485;37.558;126.950;2023-09-19T05:12:40;28.30;1.00
10864;DHT22;5485;37.558;126.950;2023-09-19T05:15:08;28.20;1.00
10864;DHT22;5485;37.558;126.950;2023-09-19T05:17:35;28.10;1.00
10864;DHT22;5485;37.558;126.950;2023-09-19T05:20:03;28.20;1.00
10864;DHT22;5485;37.558;126.950;2023-09-19T05:22:50;28.30;1.00
10864;DHT22;5485;37.558;126.950;2023-09-19T05:25:17;28.10;1.00
10864;DHT22;5485;37.558;126.950;2023-09-19T05:27:44;28.10;1.00
10864;DHT22;5485;37.558;126.950;2023-09-19T05:30:12;28.00;1.00
10864;DHT22;5485;37.558;126.950;2023-09-19T05:32:41;28.00;1.00
10864;DHT22;5485;37.558;126.950;2023-09-19T05:35:12;28.00;1.00
10864;DHT22;5485;37.558;126.950;2023-09-19T05:37:39;28.20;1.00
10864;DHT22;5485;37.558;126.950;2023-09-19T05:40:06;28.20;1.00
10864;DHT22;5485;37.558;126.950;2023-09-19T05:42:38;28.30;1.00
10864;DHT22;5485;37.558;126.950;2023-09-19T05:45:06;28.30;1.00
10864;DHT22;5485;37.558;126.950;2023-09-19T05:47:33;28.30;1.00
10864;DHT22;5485;37.558;126.950;2023-09-19T05:50:00;28.30;1.00
10864;DHT22;5485;37.558;126.950;2023-09-19T05:52:29;28.20;1.00
10864;DHT22;5485;37.558;126.950;2023-09-19T05:54:55;28.40;1.00
10864;DHT22;5485;37.558;126.950;2023-09-19T05:57:22;28.10;1.00
10864;DHT22;5485;37.558;126.950;2023-09-19T05:59:50;28.00;1.00
10864;DHT22;5485;37.558;126.950;2023-09-19T06:02:17;27.90;1.00
10864;DHT22;5485;37.558;126.950;2023-09-19T06:04:46;27.90;1.00
10864;DHT22;5485;37.558;126.950;2023-09-19T06:07:12;28.00;1.00
10864;DHT22;5485;37.558;126.950;2023-09-19T06:09:44;27.90;1.00
10864;DHT22;5485;37.558;126.950;2023-09-19T06:12:11;27.80;1.00
10864;DHT22;5485;37.558;126.950;2023-09-19T06:14:39;27.70;1.00
10864;DHT22;5485;37.558;126.950;2023-09-19T06:17:06;27.70;1.00
10864;DHT22;5485;37.558;126.950;2023-09-19T06:19:33;27.60;1.00
10864;DHT22;5485;37.558;126.950;2023-09-19T06:22:00;27.60;1.00
10864;DHT22;5485;37.558;126.950;2023-09-19T06:24:27;27.50;1.00
10864;DHT22;5485;37.558;126.950;2023-09-19T06:26:56;27.40;1.00
10864;DHT22;5485;37.558;126.950;2023-09-19T06:29:22;27.60;1.00
10864;DHT22;5485;37.558;126.950;2023-09-19T06:31:50;27.50;1.00
10864;DHT22;5485;37.558;126.950;2023-09-19T06:34:17;27.60;1.00
10864;DHT22;5485;37.558;126.950;2023-09-19T06:36:44;27.50;1.00
10864;DHT22;5485;37.558;126.950;2023-09-19T06:39:11;27.50;1.00
10864;DHT22;5485;37.558;126.950;2023-09-19T06:41:38;27.50;1.00
10864;DHT22;5485;37.558;126.950;2023-09-19T06:44:05;27.50;1.00
10864;DHT22;5485;37.558;126.950;2023-09-19T06:46:32;27.40;1.00
10864;DHT22;5485;37.558;126.950;2023-09-19T06:49:01;27.30;1.00
10864;DHT22;5485;37.558;126.950;2023-09-19T06:51:33;27.30;1.00
10864;DHT22;5485;37.558;126.950;2023-09-19T06:54:02;27.20;1.00
10864;DHT22;5485;37.558;126.950;2023-09-19T06:56:33;27.10;1.00
10864;DHT22;5485;37.558;126.950;2023-09-19T06:59:00;27.10;1.00
10864;DHT22;5485;37.558;126.950;2023-09-19T07:01:29;27.20;1.00
10864;DHT22;5485;37.558;126.950;2023-09-19T07:03:58;27.10;1.00
10864;DHT22;5485;37.558;126.950;2023-09-19T07:06:25;27.10;1.00
10864;DHT22;5485;37.558;126.950;2023-09-19T07:08:56;26.80;1.00
10864;DHT22;5485;37.558;126.950;2023-09-19T07:11:23;26.70;1.00
10864;DHT22;5485;37.558;126.950;2023-09-19T07:13:50;26.60;1.00
10864;DHT22;5485;37.558;126.950;2023-09-19T07:16:17;26.60;1.00
10864;DHT22;5485;37.558;126.950;2023-09-19T07:19:02;26.50;1.00
10864;DHT22;5485;37.558;126.950;2023-09-19T07:21:29;26.50;1.00
10864;DHT22;5485;37.558;126.950;2023-09-19T07:23:56;26.40;1.00
10864;DHT22;5485;37.558;126.950;2023-09-19T07:26:23;26.50;1.00
10864;DHT22;5485;37.558;126.950;2023-09-19T07:28:50;26.50;1.00
10864;DHT22;5485;37.558;126.950;2023-09-19T07:31:19;26.50;1.00
10864;DHT22;5485;37.558;126.950;2023-09-19T07:33:46;26.40;1.00
10864;DHT22;5485;37.558;126.950;2023-09-19T07:36:13;26.30;1.00
10864;DHT22;5485;37.558;126.950;2023-09-19T07:38:40;26.20;1.00
10864;DHT22;5485;37.558;126.950;2023-09-19T07:41:08;26.20;1.00
10864;DHT22;5485;37.558;126.950;2023-09-19T07:43:41;26.10;1.00
10864;DHT22;5485;37.558;126.950;2023-09-19T07:46:10;26.10;1.00
10864;DHT22;5485;37.558;126.950;2023-09-19T07:48:38;26.20;1.00
10864;DHT22;5485;37.558;126.950;2023-09-19T07:51:08;26.20;1.00
10864;DHT22;5485;37.558;126.950;2023-09-19T07:53:36;26.10;1.00
10864;DHT22;5485;37.558;126.950;2023-09-19T07:56:08;26.10;1.00
10864;DHT22;5485;37.558;126.950;2023-09-19T07:58:38;26.10;1.00
10864;DHT22;5485;37.558;126.950;2023-09-19T08:01:10;26.00;1.00
10864;DHT22;5485;37.558;126.950;2023-09-19T08:03:39;26.10;1.00
10864;DHT22;5485;37.558;126.950;2023-09-19T08:06:10;26.00;1.00
10864;DHT22;5485;37.558;126.950;2023-09-19T08:08:39;26.00;1.00
10864;DHT22;5485;37.558;126.950;2023-09-19T08:11:06;25.90;1.00
10864;DHT22;5485;37.558;126.950;2023-09-19T08:13:47;25.90;1.00
10864;DHT22;5485;37.558;126.950;2023-09-19T08:16:16;25.90;1.00
10864;DHT22;5485;37.558;126.950;2023-09-19T08:18:50;25.80;1.00
10864;DHT22;5485;37.558;126.950;2023-09-19T08:21:24;25.70;1.00
10864;DHT22;5485;37.558;126.950;2023-09-19T08:23:52;25.60;1.00
10864;DHT22;5485;37.558;126.950;2023-09-19T08:26:19;25.60;1.00
10864;DHT22;5485;37.558;126.950;2023-09-19T08:28:47;25.70;1.00
10864;DHT22;5485;37.558;126.950;2023-09-19T08:31:14;25.70;1.00
10864;DHT22;5485;37.558;126.950;2023-09-19T08:33:43;25.80;1.00
10864;DHT22;5485;37.558;126.950;2023-09-19T08:36:15;25.60;1.00
10864;DHT22;5485;37.558;126.950;2023-09-19T08:38:44;25.60;1.00
10864;DHT22;5485;37.558;126.950;2023-09-19T08:41:11;25.50;1.00
10864;DHT22;5485;37.558;126.950;2023-09-19T08:43:38;25.50;1.00
10864;DHT22;5485;37.558;126.950;2023-09-19T08:48:32;25.40;1.00
10864;DHT22;5485;37.558;126.950;2023-09-19T08:51:10;25.40;1.00
10864;DHT22;5485;37.558;126.950;2023-09-19T08:56:18;25.40;1.00
10864;DHT22;5485;37.558;126.950;2023-09-19T08:58:55;25.40;1.00
10864;DHT22;5485;37.558;126.950;2023-09-19T09:01:31;25.40;1.00
10864;DHT22;5485;37.558;126.950;2023-09-19T09:03:58;25.40;1.00
10864;DHT22;5485;37.558;126.950;2023-09-19T09:06:26;25.40;1.00
10864;DHT22;5485;37.558;126.950;2023-09-19T09:08:56;25.50;1.00
10864;DHT22;5485;37.558;126.950;2023-09-19T09:11:29;25.40;1.00
10864;DHT22;5485;37.558;126.950;2023-09-19T09:13:56;25.40;1.00
10864;DHT22;5485;37.558;126.950;2023-09-19T09:16:30;25.40;1.00
10864;DHT22;5485;37.558;126.950;2023-09-19T09:18:57;25.40;1.00
10864;DHT22;5485;37.558;126.950;2023-09-19T09:21:27;25.40;1.00
10864;DHT22;5485;37.558;126.950;2023-09-19T09:23:54;25.40;1.00
10864;DHT22;5485;37.558;126.950;2023-09-19T09:26:42;25.30;1.00
10864;DHT22;5485;37.558;126.950;2023-09-19T09:29:13;25.40;1.00
10864;DHT22;5485;37.558;126.950;2023-09-19T09:31:41;25.30;1.00
10864;DHT22;5485;37.558;126.950;2023-09-19T09:34:11;25.30;1.00
10864;DHT22;5485;37.558;126.950;2023-09-19T09:36:40;25.80;1.00
10864;DHT22;5485;37.558;126.950;2023-09-19T09:39:10;25.30;1.00
10864;DHT22;5485;37.558;126.950;2023-09-19T09:41:51;25.20;1.00
10864;DHT22;5485;37.558;126.950;2023-09-19T09:44:18;25.20;7.80
10864;DHT22;5485;37.558;126.950;2023-09-19T09:46:49;25.10;10.50
10864;DHT22;5485;37.558;126.950;2023-09-19T09:49:26;25.10;22.60
10864;DHT22;5485;37.558;126.950;2023-09-19T09:52:07;25.00;37.20
10864;DHT22;5485;37.558;126.950;2023-09-19T09:55:03;25.00;64.00
10864;DHT22;5485;37.558;126.950;2023-09-19T09:57:31;24.90;71.20
10864;DHT22;5485;37.558;126.950;2023-09-19T10:00:00;25.00;71.00
10864;DHT22;5485;37.558;126.950;2023-09-19T10:02:46;25.00;71.10
10864;DHT22;5485;37.558;126.950;2023-09-19T10:05:17;25.00;80.80
10864;DHT22;5485;37.558;126.950;2023-09-19T10:07:54;24.90;84.20
10864;DHT22;5485;37.558;126.950;2023-09-19T10:10:41;25.00;91.20
10864;DHT22;5485;37.558;126.950;2023-09-19T10:13:09;24.90;95.30
10864;DHT22;5485;37.558;126.950;2023-09-19T10:15:51;25.00;99.90
10864;DHT22;5485;37.558;126.950;2023-09-19T10:18:25;24.90;99.90
10864;DHT22;5485;37.558;126.950;2023-09-19T10:20:54;24.90;99.90
10864;DHT22;5485;37.558;126.950;2023-09-19T10:23:22;24.90;99.90
10864;DHT22;5485;37.558;126.950;2023-09-19T10:25:53;24.90;99.90
10864;DHT22;5485;37.558;126.950;2023-09-19T10:28:21;24.80;99.90
10864;DHT22;5485;37.558;126.950;2023-09-19T10:30:51;24.80;99.90
10864;DHT22;5485;37.558;126.950;2023-09-19T10:33:21;24.70;99.90
10864;DHT22;5485;37.558;126.950;2023-09-19T10:35:50;24.70;99.90
10864;DHT22;5485;37.558;126.950;2023-09-19T10:38:26;24.60;99.90
10864;DHT22;5485;37.558;126.950;2023-09-19T10:40:56;24.70;99.90
10864;DHT22;5485;37.558;126.950;2023-09-19T10:43:31;24.70;99.90
10864;DHT22;5485;37.558;126.950;2023-09-19T10:46:07;24.60;99.90
10864;DHT22;5485;37.558;126.950;2023-09-19T10:48:36;24.70;99.90
10864;DHT22;5485;37.558;126.950;2023-09-19T10:51:16;24.70;99.90
10864;DHT22;5485;37.558;126.950;2023-09-19T10:54:01;24.70;99.90
10864;DHT22;5485;37.558;126.950;2023-09-19T10:56:36;24.70;99.90
10864;DHT22;5485;37.558;126.950;2023-09-19T10:59:13;24.70;99.90
10864;DHT22;5485;37.558;126.950;2023-09-19T11:01:49;24.70;99.90
10864;DHT22;5485;37.558;126.950;2023-09-19T11:09:58;24.60;99.90
10864;DHT22;5485;37.558;126.950;2023-09-19T11:15:08;24.50;99.90
10864;DHT22;5485;37.558;126.950;2023-09-19T11:17:38;24.40;99.90
10864;DHT22;5485;37.558;126.950;2023-09-19T11:30:45;24.30;99.90
10864;DHT22;5485;37.558;126.950;2023-09-19T11:36:05;24.30;99.90
10864;DHT22;5485;37.558;126.950;2023-09-19T11:49:19;24.20;99.90
10864;DHT22;5485;37.558;126.950;2023-09-19T11:51:52;24.20;99.90
10864;DHT22;5485;37.558;126.950;2023-09-19T11:54:20;24.20;99.90
10864;DHT22;5485;37.558;126.950;2023-09-19T11:56:52;24.10;99.90
10864;DHT22;5485;37.558;126.950;2023-09-19T11:59:23;24.20;99.90
10864;DHT22;5485;37.558;126.950;2023-09-19T12:01:58;24.20;99.90
10864;DHT22;5485;37.558;126.950;2023-09-19T12:04:38;24.20;99.90
10864;DHT22;5485;37.558;126.950;2023-09-19T12:07:10;24.30;99.90
10864;DHT22;5485;37.558;126.950;2023-09-19T12:09:42;24.20;99.90
10864;DHT22;5485;37.558;126.950;2023-09-19T12:12:19;24.20;99.90
10864;DHT22;5485;37.558;126.950;2023-09-19T12:14:50;24.20;99.90
10864;DHT22;5485;37.558;126.950;2023-09-19T12:17:18;24.20;99.90
10864;DHT22;5485;37.558;126.950;2023-09-19T12:19:56;24.20;99.90
10864;DHT22;5485;37.558;126.950;2023-09-19T12:22:23;24.20;99.90
10864;DHT22;5485;37.558;126.950;2023-09-19T12:24:51;24.20;99.90
10864;DHT22;5485;37.558;126.950;2023-09-19T12:27:20;24.30;99.90
10864;DHT22;5485;37.558;126.950;2023-09-19T12:29:49;24.30;99.90
10864;DHT22;5485;37.558;126.950;2023-09-19T12:32:16;24.30;99.90
10864;DHT22;5485;37.558;126.950;2023-09-19T12:34:54;24.30;99.90
10864;DHT22;5485;37.558;126.950;2023-09-19T12:37:21;24.30;99.90
10864;DHT22;5485;37.558;126.950;2023-09-19T12:39:53;24.30;99.90
10864;DHT22;5485;37.558;126.950;2023-09-19T12:42:23;24.30;99.90
10864;DHT22;5485;37.558;126.950;2023-09-19T12:44:52;24.20;99.90
10864;DHT22;5485;37.558;126.950;2023-09-19T12:47:24;24.20;99.90
10864;DHT22;5485;37.558;126.950;2023-09-19T12:52:54;24.20;99.90
10864;DHT22;5485;37.558;126.950;2023-09-19T12:55:27;24.10;99.90
10864;DHT22;5485;37.558;126.950;2023-09-19T12:58:13;24.20;99.90
10864;DHT22;5485;37.558;126.950;2023-09-19T13:00:42;24.20;99.90
10864;DHT22;5485;37.558;126.950;2023-09-19T13:05:53;24.10;99.90
10864;DHT22;5485;37.558;126.950;2023-09-19T13:08:32;24.10;99.90
10864;DHT22;5485;37.558;126.950;2023-09-19T13:13:28;24.10;99.90
10864;DHT22;5485;37.558;126.950;2023-09-19T13:15:56;24.10;99.90
10864;DHT22;5485;37.558;126.950;2023-09-19T13:18:28;24.10;99.90
10864;DHT22;5485;37.558;126.950;2023-09-19T13:21:12;24.10;99.90
10864;DHT22;5485;37.558;126.950;2023-09-19T13:23:55;24.00;99.90
10864;DHT22;5485;37.558;126.950;2023-09-19T13:26:28;24.00;99.90
10864;DHT22;5485;37.558;126.950;2023-09-19T13:28:57;23.90;99.90
10864;DHT22;5485;37.558;126.950;2023-09-19T13:31:24;23.90;99.90
10864;DHT22;5485;37.558;126.950;2023-09-19T13:33:51;23.80;99.90
10864;DHT22;5485;37.558;126.950;2023-09-19T13:36:18;23.80;99.90
10864;DHT22;5485;37.558;126.950;2023-09-19T13:38:45;23.80;99.90
10864;DHT22;5485;37.558;126.950;2023-09-19T13:41:15;23.80;99.90
10864;DHT22;5485;37.558;126.950;2023-09-19T13:43:42;23.80;99.90
10864;DHT22;5485;37.558;126.950;2023-09-19T13:46:14;23.80;99.90
10864;DHT22;5485;37.558;126.950;2023-09-19T13:48:44;23.80;99.90
10864;DHT22;5485;37.558;126.950;2023-09-19T13:51:10;23.80;99.90
10864;DHT22;5485;37.558;126.950;2023-09-19T13:53:37;23.80;99.90
10864;DHT22;5485;37.558;126.950;2023-09-19T13:56:05;23.80;99.90
10864;DHT22;5485;37.558;126.950;2023-09-19T13:58:33;23.80;99.90
10864;DHT22;5485;37.558;126.950;2023-09-19T14:01:05;23.80;99.90
10864;DHT22;5485;37.558;126.950;2023-09-19T14:03:35;23.80;99.90
10864;DHT22;5485;37.558;126.950;2023-09-19T14:06:05;23.80;99.90
10864;DHT22;5485;37.558;126.950;2023-09-19T14:08:32;23.80;99.90
10864;DHT22;5485;37.558;126.950;2023-09-19T14:11:07;23.80;99.90
10864;DHT22;5485;37.558;126.950;2023-09-19T14:13:33;24.20;99.90
10864;DHT22;5485;37.558;126.950;2023-09-19T14:16:07;23.90;99.90
10864;DHT22;5485;37.558;126.950;2023-09-19T14:18:35;23.90;99.90
10864;DHT22;5485;37.558;126.950;2023-09-19T14:21:05;24.00;99.90
10864;DHT22;5485;37.558;126.950;2023-09-19T14:23:39;24.10;99.90
10864;DHT22;5485;37.558;126.950;2023-09-19T14:26:07;24.10;99.90
10864;DHT22;5485;37.558;126.950;2023-09-19T14:28:35;24.10;99.90
10864;DHT22;5485;37.558;126.950;2023-09-19T14:31:09;24.10;99.90
10864;DHT22;5485;37.558;126.950;2023-09-19T14:33:37;24.10;99.90
10864;DHT22;5485;37.558;126.950;2023-09-19T14:36:08;24.10;99.90
10864;DHT22;5485;37.558;126.950;2023-09-19T14:38:37;24.10;99.90
10864;DHT22;5485;37.558;126.950;2023-09-19T14:41:13;24.50;99.90
10864;DHT22;5485;37.558;126.950;2023-09-19T14:43:40;24.20;99.90
10864;DHT22;5485;37.558;126.950;2023-09-19T14:46:08;24.00;99.90
10864;DHT22;5485;37.558;126.950;2023-09-19T14:48:36;24.60;99.90
10864;DHT22;5485;37.558;126.950;2023-09-19T14:51:10;24.10;99.90
10864;DHT22;5485;37.558;126.950;2023-09-19T14:53:41;24.10;99.90
10864;DHT22;5485;37.558;126.950;2023-09-19T14:56:09;24.10;99.90
10864;DHT22;5485;37.558;126.950;2023-09-19T14:58:37;24.00;99.90
10864;DHT22;5485;37.558;126.950;2023-09-19T15:01:09;24.00;99.90
10864;DHT22;5485;37.558;126.950;2023-09-19T15:03:42;23.90;99.90
10864;DHT22;5485;37.558;126.950;2023-09-19T15:06:10;23.90;99.90
10864;DHT22;5485;37.558;126.950;2023-09-19T15:08:43;23.90;99.90
10864;DHT22;5485;37.558;126.950;2023-09-19T15:11:19;23.80;99.90
10864;DHT22;5485;37.558;126.950;2023-09-19T15:13:48;23.90;99.90
10864;DHT22;5485;37.558;126.950;2023-09-19T15:16:14;23.90;99.90
10864;DHT22;5485;37.558;126.950;2023-09-19T15:18:43;23.80;99.90
10864;DHT22;5485;37.558;126.950;2023-09-19T15:21:12;23.80;99.90
10864;DHT22;5485;37.558;126.950;2023-09-19T15:23:41;23.80;99.90
10864;DHT22;5485;37.558;126.950;2023-09-19T15:26:11;23.80;99.90
10864;DHT22;5485;37.558;126.950;2023-09-19T15:28:38;23.80;99.90
10864;DHT22;5485;37.558;126.950;2023-09-19T15:31:07;23.90;99.90
10864;DHT22;5485;37.558;126.950;2023-09-19T15:33:35;23.80;99.90
10864;DHT22;5485;37.558;126.950;2023-09-19T15:36:06;23.90;99.90
10864;DHT22;5485;37.558;126.950;2023-09-19T15:39:07;23.80;99.90
10864;DHT22;5485;37.558;126.950;2023-09-19T15:41:38;23.80;99.90
10864;DHT22;5485;37.558;126.950;2023-09-19T15:44:12;23.80;99.90
10864;DHT22;5485;37.558;126.950;2023-09-19T15:46:39;23.70;99.90
10864;DHT22;5485;37.558;126.950;2023-09-19T15:49:13;23.70;99.90
10864;DHT22;5485;37.558;126.950;2023-09-19T15:51:43;23.70;99.90
10864;DHT22;5485;37.558;126.950;2023-09-19T15:54:14;23.70;99.90
10864;DHT22;5485;37.558;126.950;2023-09-19T15:56:45;23.70;99.90
10864;DHT22;5485;37.558;126.950;2023-09-19T15:59:13;23.60;99.90
10864;DHT22;5485;37.558;126.950;2023-09-19T16:01:46;23.70;99.90
10864;DHT22;5485;37.558;126.950;2023-09-19T16:04:16;23.70;99.90
10864;DHT22;5485;37.558;126.950;2023-09-19T16:06:46;23.70;99.90
10864;DHT22;5485;37.558;126.950;2023-09-19T16:09:13;23.60;99.90
10864;DHT22;5485;37.558;126.950;2023-09-19T16:11:42;23.70;99.90
10864;DHT22;5485;37.558;126.950;2023-09-19T16:14:10;23.70;99.90
10864;DHT22;5485;37.558;126.950;2023-09-19T16:16:37;23.70;99.90
10864;DHT22;5485;37.558;126.950;2023-09-19T16:19:04;23.70;99.90
10864;DHT22;5485;37.558;126.950;2023-09-19T16:21:37;23.70;99.90
10864;DHT22;5485;37.558;126.950;2023-09-19T16:24:06;23.70;99.90
10864;DHT22;5485;37.558;126.950;2023-09-19T16:26:35;23.80;99.90
10864;DHT22;5485;37.558;126.950;2023-09-19T16:29:06;23.70;99.90
10864;DHT22;5485;37.558;126.950;2023-09-19T16:31:34;23.80;99.90
10864;DHT22;5485;37.558;126.950;2023-09-19T16:34:01;23.60;99.90
10864;DHT22;5485;37.558;126.950;2023-09-19T16:36:28;23.60;99.90
10864;DHT22;5485;37.558;126.950;2023-09-19T16:38:55;23.60;99.90
10864;DHT22;5485;37.558;126.950;2023-09-19T16:41:28;23.60;99.90
10864;DHT22;5485;37.558;126.950;2023-09-19T16:43:56;23.60;99.90
10864;DHT22;5485;37.558;126.950;2023-09-19T16:46:24;23.60;99.90
10864;DHT22;5485;37.558;126.950;2023-09-19T16:48:54;23.60;99.90